Pagrindinis puslapis
METAR-TAF:

METAR-TAF

Oro uostai :

Florø, Norvegija

platuma: 61-35N, ilguma: 005-02E, Aukštis: 0 m

Dabartinis oras

Ataskaita buvo paskelbta 24 minutes, ne 07:20 UTC
Vėjas 25 kt iš Rytų/Pietryčių
Temperatūra 4°C
Drėgmė 87%
Slėgis 965 hPa
Matomumas 10 km arba daugiau
lietus

METAR: ENFL 080720Z AUTO 11025KT 9999NDV -RA BKN023/// OVC035/// 04/02 Q0965

Laikas: 08:44 (07:44 UTC)

Prognozė

Ataskaita buvo paskelbta 26 valandos ir 44 minutes, ne 05:00 UTC
Prognozė galioja nuo 07 metu 07 UTC su 07 metu 10 UTC
Vėjas 15 kt iš Vakarų/Šiaurės Vakarų
Matomumas 10 km arba daugiau
Mažai debesys ne aukštis 1200 ft, aukštai iškilę kamuoliniai debesys.
Su prošvaistėmis ne aukštis 3000 ft
lietus
Laikinai
nuo 07 metu 07 UTC su 07 metu 10 UTC
Vėjas 18 kt iš Vakarų/Šiaurės Vakarų su gūsio iki 28 kt
Matomumas: 4000 m
Su prošvaistėmis ne aukštis 1200 ft, Liūtiniai kamuoliniai debesys.
lietus

TAF: ENFL 070500Z 0707/0710 29015KT 9999 -SHRA FEW012TCU BKN030 TEMPO 0707/0710 29018G28KT 4000 SHRA BKN012CB

Orai ataskaitas ir orų prognozės (METAR, TAF).

turimą stotys yra geltonos ir raudonos taškus žemėlapyje.

Perkelti pele per norėdami pamatyti stoties vardą.

Tada spustelėkite, norėdami matyti oro stebėjimo ir prognozės.

Norėdami pakeisti žemėlapį: spustelėkite ant žalios mygtukų su juodo kryžiaus žemyn,; žalią mygtuką su brūkšneliu, jei norite nutolinti; arba žalių rodyklių gretimoms žemėlapius.


METAR-TAF: